sensor_id;sensor_type;location;lat;lon;timestamp;temperature;humidity
55213;DHT22;41083;52.932;6.674;2023-02-10T00:01:12;2.70;99.90
55213;DHT22;41083;52.932;6.674;2023-02-10T00:03:39;2.70;99.90
55213;DHT22;41083;52.932;6.674;2023-02-10T00:06:06;2.70;99.90
55213;DHT22;41083;52.932;6.674;2023-02-10T00:08:32;2.70;99.90
55213;DHT22;41083;52.932;6.674;2023-02-10T00:10:59;2.70;99.90
55213;DHT22;41083;52.932;6.674;2023-02-10T00:13:26;2.60;99.90
55213;DHT22;41083;52.932;6.674;2023-02-10T00:15:53;2.60;99.90
55213;DHT22;41083;52.932;6.674;2023-02-10T00:18:18;2.60;99.90
55213;DHT22;41083;52.932;6.674;2023-02-10T00:20:44;2.60;99.90
55213;DHT22;41083;52.932;6.674;2023-02-10T00:23:10;2.60;99.90
55213;DHT22;41083;52.932;6.674;2023-02-10T00:25:36;2.60;99.90
55213;DHT22;41083;52.932;6.674;2023-02-10T00:28:02;2.60;99.90
55213;DHT22;41083;52.932;6.674;2023-02-10T00:30:28;2.60;99.90
55213;DHT22;41083;52.932;6.674;2023-02-10T00:32:54;2.60;99.90
55213;DHT22;41083;52.932;6.674;2023-02-10T00:35:19;2.60;99.90
55213;DHT22;41083;52.932;6.674;2023-02-10T00:37:45;2.60;99.90
55213;DHT22;41083;52.932;6.674;2023-02-10T00:40:10;2.60;99.90
55213;DHT22;41083;52.932;6.674;2023-02-10T00:42:36;2.60;99.90
55213;DHT22;41083;52.932;6.674;2023-02-10T00:45:02;2.60;99.90
55213;DHT22;41083;52.932;6.674;2023-02-10T00:47:28;2.60;99.90
55213;DHT22;41083;52.932;6.674;2023-02-10T00:49:53;2.60;99.90
55213;DHT22;41083;52.932;6.674;2023-02-10T00:52:19;2.60;99.90
55213;DHT22;41083;52.932;6.674;2023-02-10T00:54:45;2.60;99.90
55213;DHT22;41083;52.932;6.674;2023-02-10T00:57:10;2.60;99.90
55213;DHT22;41083;52.932;6.674;2023-02-10T00:59:36;2.60;99.90
55213;DHT22;41083;52.932;6.674;2023-02-10T01:02:01;2.60;99.90
55213;DHT22;41083;52.932;6.674;2023-02-10T01:04:27;2.60;99.90
55213;DHT22;41083;52.932;6.674;2023-02-10T01:06:52;2.50;99.90
55213;DHT22;41083;52.932;6.674;2023-02-10T01:09:18;2.50;99.90
55213;DHT22;41083;52.932;6.674;2023-02-10T01:11:44;2.50;99.90
55213;DHT22;41083;52.932;6.674;2023-02-10T01:14:10;2.50;99.90
55213;DHT22;41083;52.932;6.674;2023-02-10T01:16:36;2.50;99.90
55213;DHT22;41083;52.932;6.674;2023-02-10T01:19:02;2.50;99.90
55213;DHT22;41083;52.932;6.674;2023-02-10T01:21:28;2.50;99.90
55213;DHT22;41083;52.932;6.674;2023-02-10T01:23:55;2.50;99.90
55213;DHT22;41083;52.932;6.674;2023-02-10T01:26:21;2.50;99.90
55213;DHT22;41083;52.932;6.674;2023-02-10T01:28:47;2.50;99.90
55213;DHT22;41083;52.932;6.674;2023-02-10T01:31:19;2.50;99.90
55213;DHT22;41083;52.932;6.674;2023-02-10T01:33:45;2.50;99.90
55213;DHT22;41083;52.932;6.674;2023-02-10T01:36:16;2.50;99.90
55213;DHT22;41083;52.932;6.674;2023-02-10T01:38:42;2.50;99.90
55213;DHT22;41083;52.932;6.674;2023-02-10T01:41:08;2.50;99.90
55213;DHT22;41083;52.932;6.674;2023-02-10T01:43:57;2.50;99.90
55213;DHT22;41083;52.932;6.674;2023-02-10T01:46:24;2.50;99.90
55213;DHT22;41083;52.932;6.674;2023-02-10T01:48:50;2.50;99.90
55213;DHT22;41083;52.932;6.674;2023-02-10T01:51:19;2.50;99.90
55213;DHT22;41083;52.932;6.674;2023-02-10T01:53:47;2.40;99.90
55213;DHT22;41083;52.932;6.674;2023-02-10T01:56:15;2.50;99.90
55213;DHT22;41083;52.932;6.674;2023-02-10T01:58:41;2.50;99.90
55213;DHT22;41083;52.932;6.674;2023-02-10T02:01:09;2.40;99.90
55213;DHT22;41083;52.932;6.674;2023-02-10T02:03:34;2.50;99.90
55213;DHT22;41083;52.932;6.674;2023-02-10T02:06:01;2.50;99.90
55213;DHT22;41083;52.932;6.674;2023-02-10T02:08:30;2.50;99.90
55213;DHT22;41083;52.932;6.674;2023-02-10T02:11:22;2.40;99.90
55213;DHT22;41083;52.932;6.674;2023-02-10T02:14:12;2.50;99.90
55213;DHT22;41083;52.932;6.674;2023-02-10T02:26:26;2.40;99.90
55213;DHT22;41083;52.932;6.674;2023-02-10T02:37:30;2.50;99.90
55213;DHT22;41083;52.932;6.674;2023-02-10T02:39:56;2.50;99.90
55213;DHT22;41083;52.932;6.674;2023-02-10T02:42:33;2.40;99.90
55213;DHT22;41083;52.932;6.674;2023-02-10T02:48:11;2.50;99.90
55213;DHT22;41083;52.932;6.674;2023-02-10T02:50:57;2.50;99.90
55213;DHT22;41083;52.932;6.674;2023-02-10T02:53:46;2.50;99.90
55213;DHT22;41083;52.932;6.674;2023-02-10T03:01:45;2.50;99.90
55213;DHT22;41083;52.932;6.674;2023-02-10T03:04:13;2.40;99.90
55213;DHT22;41083;52.932;6.674;2023-02-10T03:06:40;2.40;99.90
55213;DHT22;41083;52.932;6.674;2023-02-10T03:09:06;2.40;99.90
55213;DHT22;41083;52.932;6.674;2023-02-10T03:11:32;2.40;99.90
55213;DHT22;41083;52.932;6.674;2023-02-10T03:13:57;2.40;99.90
55213;DHT22;41083;52.932;6.674;2023-02-10T03:16:23;2.40;99.90
55213;DHT22;41083;52.932;6.674;2023-02-10T03:18:48;2.40;99.90
55213;DHT22;41083;52.932;6.674;2023-02-10T03:21:15;2.40;99.90
55213;DHT22;41083;52.932;6.674;2023-02-10T03:23:41;2.40;99.90
55213;DHT22;41083;52.932;6.674;2023-02-10T03:26:06;2.40;99.90
55213;DHT22;41083;52.932;6.674;2023-02-10T03:28:32;2.40;99.90
55213;DHT22;41083;52.932;6.674;2023-02-10T03:31:00;2.40;99.90
55213;DHT22;41083;52.932;6.674;2023-02-10T03:33:26;2.40;99.90
55213;DHT22;41083;52.932;6.674;2023-02-10T03:35:51;2.40;99.90
55213;DHT22;41083;52.932;6.674;2023-02-10T03:38:17;2.40;99.90
55213;DHT22;41083;52.932;6.674;2023-02-10T03:40:43;2.40;99.90
55213;DHT22;41083;52.932;6.674;2023-02-10T03:43:08;2.40;99.90
55213;DHT22;41083;52.932;6.674;2023-02-10T03:45:34;2.40;99.90
55213;DHT22;41083;52.932;6.674;2023-02-10T03:48:00;2.40;99.90
55213;DHT22;41083;52.932;6.674;2023-02-10T03:50:25;2.40;99.90
55213;DHT22;41083;52.932;6.674;2023-02-10T03:52:51;2.40;99.90
55213;DHT22;41083;52.932;6.674;2023-02-10T03:55:17;2.40;99.90
55213;DHT22;41083;52.932;6.674;2023-02-10T03:57:44;2.40;99.90
55213;DHT22;41083;52.932;6.674;2023-02-10T04:00:12;2.40;99.90
55213;DHT22;41083;52.932;6.674;2023-02-10T04:02:38;2.40;99.90
55213;DHT22;41083;52.932;6.674;2023-02-10T04:05:04;2.40;99.90
55213;DHT22;41083;52.932;6.674;2023-02-10T04:07:30;2.40;99.90
55213;DHT22;41083;52.932;6.674;2023-02-10T04:09:55;2.40;99.90
55213;DHT22;41083;52.932;6.674;2023-02-10T04:12:21;2.40;99.90
55213;DHT22;41083;52.932;6.674;2023-02-10T04:14:47;2.30;99.90
55213;DHT22;41083;52.932;6.674;2023-02-10T04:17:12;2.40;99.90
55213;DHT22;41083;52.932;6.674;2023-02-10T04:19:38;2.40;99.90
55213;DHT22;41083;52.932;6.674;2023-02-10T04:22:03;2.40;99.90
55213;DHT22;41083;52.932;6.674;2023-02-10T04:24:29;2.30;99.90
55213;DHT22;41083;52.932;6.674;2023-02-10T04:26:55;2.30;99.90
55213;DHT22;41083;52.932;6.674;2023-02-10T04:29:21;2.40;99.90
55213;DHT22;41083;52.932;6.674;2023-02-10T04:31:47;2.40;99.90
55213;DHT22;41083;52.932;6.674;2023-02-10T04:34:13;2.40;99.90
55213;DHT22;41083;52.932;6.674;2023-02-10T04:36:38;2.40;99.90
55213;DHT22;41083;52.932;6.674;2023-02-10T04:39:04;2.40;99.90
55213;DHT22;41083;52.932;6.674;2023-02-10T04:41:29;2.40;99.90
55213;DHT22;41083;52.932;6.674;2023-02-10T04:43:55;2.40;99.90
55213;DHT22;41083;52.932;6.674;2023-02-10T04:46:21;2.40;99.90
55213;DHT22;41083;52.932;6.674;2023-02-10T04:48:46;2.30;99.90
55213;DHT22;41083;52.932;6.674;2023-02-10T04:51:12;2.30;99.90
55213;DHT22;41083;52.932;6.674;2023-02-10T04:53:39;2.30;99.90
55213;DHT22;41083;52.932;6.674;2023-02-10T04:56:06;2.30;99.90
55213;DHT22;41083;52.932;6.674;2023-02-10T04:58:33;2.30;99.90
55213;DHT22;41083;52.932;6.674;2023-02-10T05:00:58;2.30;99.90
55213;DHT22;41083;52.932;6.674;2023-02-10T05:03:24;2.30;99.90
55213;DHT22;41083;52.932;6.674;2023-02-10T05:05:50;2.30;99.90
55213;DHT22;41083;52.932;6.674;2023-02-10T05:08:20;2.30;99.90
55213;DHT22;41083;52.932;6.674;2023-02-10T05:10:48;2.20;99.90
55213;DHT22;41083;52.932;6.674;2023-02-10T05:13:14;2.20;99.90
55213;DHT22;41083;52.932;6.674;2023-02-10T05:15:40;2.20;99.90
55213;DHT22;41083;52.932;6.674;2023-02-10T05:18:05;2.20;99.90
55213;DHT22;41083;52.932;6.674;2023-02-10T05:20:31;2.20;99.90
55213;DHT22;41083;52.932;6.674;2023-02-10T05:22:56;2.20;99.90
55213;DHT22;41083;52.932;6.674;2023-02-10T05:25:22;2.20;99.90
55213;DHT22;41083;52.932;6.674;2023-02-10T05:27:47;2.20;99.90
55213;DHT22;41083;52.932;6.674;2023-02-10T05:30:13;2.20;99.90
55213;DHT22;41083;52.932;6.674;2023-02-10T05:32:40;2.20;99.90
55213;DHT22;41083;52.932;6.674;2023-02-10T05:35:06;2.20;99.90
55213;DHT22;41083;52.932;6.674;2023-02-10T05:37:32;2.20;99.90
55213;DHT22;41083;52.932;6.674;2023-02-10T05:39:57;2.20;99.90
55213;DHT22;41083;52.932;6.674;2023-02-10T05:42:23;2.20;99.90
55213;DHT22;41083;52.932;6.674;2023-02-10T05:44:49;2.20;99.90
55213;DHT22;41083;52.932;6.674;2023-02-10T05:47:14;2.20;99.90
55213;DHT22;41083;52.932;6.674;2023-02-10T05:49:40;2.10;99.90
55213;DHT22;41083;52.932;6.674;2023-02-10T05:52:06;2.10;99.90
55213;DHT22;41083;52.932;6.674;2023-02-10T05:54:31;2.10;99.90
55213;DHT22;41083;52.932;6.674;2023-02-10T05:56:57;2.10;99.90
55213;DHT22;41083;52.932;6.674;2023-02-10T05:59:22;2.20;99.90
55213;DHT22;41083;52.932;6.674;2023-02-10T06:01:48;2.20;99.90
55213;DHT22;41083;52.932;6.674;2023-02-10T06:04:13;2.20;99.90
55213;DHT22;41083;52.932;6.674;2023-02-10T06:06:39;2.20;99.90
55213;DHT22;41083;52.932;6.674;2023-02-10T06:09:05;2.20;99.90
55213;DHT22;41083;52.932;6.674;2023-02-10T06:11:31;2.20;99.90
55213;DHT22;41083;52.932;6.674;2023-02-10T06:13:57;2.10;99.90
55213;DHT22;41083;52.932;6.674;2023-02-10T06:16:22;2.20;99.90
55213;DHT22;41083;52.932;6.674;2023-02-10T06:18:48;2.20;99.90
55213;DHT22;41083;52.932;6.674;2023-02-10T06:21:15;2.20;99.90
55213;DHT22;41083;52.932;6.674;2023-02-10T06:23:40;2.10;99.90
55213;DHT22;41083;52.932;6.674;2023-02-10T06:26:06;2.20;99.90
55213;DHT22;41083;52.932;6.674;2023-02-10T06:28:31;2.20;99.90
55213;DHT22;41083;52.932;6.674;2023-02-10T06:30:57;2.20;99.90
55213;DHT22;41083;52.932;6.674;2023-02-10T06:33:23;2.10;99.90
55213;DHT22;41083;52.932;6.674;2023-02-10T06:35:49;2.20;99.90
55213;DHT22;41083;52.932;6.674;2023-02-10T06:38:15;2.20;99.90
55213;DHT22;41083;52.932;6.674;2023-02-10T06:40:41;2.10;99.90
55213;DHT22;41083;52.932;6.674;2023-02-10T06:43:06;2.10;99.90
55213;DHT22;41083;52.932;6.674;2023-02-10T06:45:32;2.10;99.90
55213;DHT22;41083;52.932;6.674;2023-02-10T06:47:58;2.10;99.90
55213;DHT22;41083;52.932;6.674;2023-02-10T06:50:24;2.10;99.90
55213;DHT22;41083;52.932;6.674;2023-02-10T06:52:50;2.10;99.90
55213;DHT22;41083;52.932;6.674;2023-02-10T06:55:16;2.10;99.90
55213;DHT22;41083;52.932;6.674;2023-02-10T06:57:42;2.10;99.90
55213;DHT22;41083;52.932;6.674;2023-02-10T07:00:10;2.10;99.90
55213;DHT22;41083;52.932;6.674;2023-02-10T07:02:36;2.10;99.90
55213;DHT22;41083;52.932;6.674;2023-02-10T07:05:02;2.10;99.90
55213;DHT22;41083;52.932;6.674;2023-02-10T07:07:30;2.10;99.90
55213;DHT22;41083;52.932;6.674;2023-02-10T07:09:55;2.10;99.90
55213;DHT22;41083;52.932;6.674;2023-02-10T07:12:21;2.00;99.90
55213;DHT22;41083;52.932;6.674;2023-02-10T07:14:47;2.00;99.90
55213;DHT22;41083;52.932;6.674;2023-02-10T07:17:13;2.00;99.90
55213;DHT22;41083;52.932;6.674;2023-02-10T07:19:38;2.00;99.90
55213;DHT22;41083;52.932;6.674;2023-02-10T07:22:04;2.00;99.90
55213;DHT22;41083;52.932;6.674;2023-02-10T07:24:32;2.00;99.90
55213;DHT22;41083;52.932;6.674;2023-02-10T07:26:58;1.90;99.90
55213;DHT22;41083;52.932;6.674;2023-02-10T07:29:24;2.00;99.90
55213;DHT22;41083;52.932;6.674;2023-02-10T07:31:49;2.00;99.90
55213;DHT22;41083;52.932;6.674;2023-02-10T07:34:15;2.00;99.90
55213;DHT22;41083;52.932;6.674;2023-02-10T07:36:44;2.00;99.90
55213;DHT22;41083;52.932;6.674;2023-02-10T07:39:10;2.00;99.90
55213;DHT22;41083;52.932;6.674;2023-02-10T07:41:36;2.00;99.90
55213;DHT22;41083;52.932;6.674;2023-02-10T07:44:02;2.10;99.90
55213;DHT22;41083;52.932;6.674;2023-02-10T07:46:28;2.10;99.90
55213;DHT22;41083;52.932;6.674;2023-02-10T07:48:53;2.10;99.90
55213;DHT22;41083;52.932;6.674;2023-02-10T07:51:19;2.10;99.90
55213;DHT22;41083;52.932;6.674;2023-02-10T07:53:44;2.10;99.90
55213;DHT22;41083;52.932;6.674;2023-02-10T07:56:10;2.20;99.90
55213;DHT22;41083;52.932;6.674;2023-02-10T07:58:36;2.20;99.90
55213;DHT22;41083;52.932;6.674;2023-02-10T08:01:10;2.20;99.90
55213;DHT22;41083;52.932;6.674;2023-02-10T08:03:36;2.20;99.90
55213;DHT22;41083;52.932;6.674;2023-02-10T08:06:03;2.20;99.90
55213;DHT22;41083;52.932;6.674;2023-02-10T08:08:29;2.30;99.90
55213;DHT22;41083;52.932;6.674;2023-02-10T08:10:54;2.30;99.90
55213;DHT22;41083;52.932;6.674;2023-02-10T08:13:20;2.30;99.90
55213;DHT22;41083;52.932;6.674;2023-02-10T08:15:46;2.30;99.90
55213;DHT22;41083;52.932;6.674;2023-02-10T08:18:12;2.30;99.90
55213;DHT22;41083;52.932;6.674;2023-02-10T08:20:37;2.30;99.90
55213;DHT22;41083;52.932;6.674;2023-02-10T08:23:03;2.30;99.90
55213;DHT22;41083;52.932;6.674;2023-02-10T08:25:28;2.40;99.90
55213;DHT22;41083;52.932;6.674;2023-02-10T08:27:54;2.40;99.90
55213;DHT22;41083;52.932;6.674;2023-02-10T08:30:20;2.50;99.90
55213;DHT22;41083;52.932;6.674;2023-02-10T08:32:45;2.50;99.90
55213;DHT22;41083;52.932;6.674;2023-02-10T08:35:11;2.60;99.90
55213;DHT22;41083;52.932;6.674;2023-02-10T08:37:37;2.70;99.90
55213;DHT22;41083;52.932;6.674;2023-02-10T08:40:03;2.70;99.90
55213;DHT22;41083;52.932;6.674;2023-02-10T08:42:31;2.80;99.90
55213;DHT22;41083;52.932;6.674;2023-02-10T08:44:57;2.90;99.90
55213;DHT22;41083;52.932;6.674;2023-02-10T08:47:22;2.90;99.90
55213;DHT22;41083;52.932;6.674;2023-02-10T08:49:48;2.90;99.90
55213;DHT22;41083;52.932;6.674;2023-02-10T08:52:14;3.00;99.90
55213;DHT22;41083;52.932;6.674;2023-02-10T08:54:39;3.00;99.90
55213;DHT22;41083;52.932;6.674;2023-02-10T08:57:05;3.00;99.90
55213;DHT22;41083;52.932;6.674;2023-02-10T08:59:31;3.10;99.90
55213;DHT22;41083;52.932;6.674;2023-02-10T09:01:56;3.10;99.90
55213;DHT22;41083;52.932;6.674;2023-02-10T09:04:22;3.10;99.90
55213;DHT22;41083;52.932;6.674;2023-02-10T09:06:48;3.10;99.90
55213;DHT22;41083;52.932;6.674;2023-02-10T09:09:19;3.10;99.90
55213;DHT22;41083;52.932;6.674;2023-02-10T09:11:46;3.10;99.90
55213;DHT22;41083;52.932;6.674;2023-02-10T09:14:12;3.20;99.90
55213;DHT22;41083;52.932;6.674;2023-02-10T09:16:38;3.10;99.90
55213;DHT22;41083;52.932;6.674;2023-02-10T09:19:04;3.20;99.90
55213;DHT22;41083;52.932;6.674;2023-02-10T09:21:30;3.20;99.90
55213;DHT22;41083;52.932;6.674;2023-02-10T09:23:56;3.20;99.90
55213;DHT22;41083;52.932;6.674;2023-02-10T09:26:21;3.30;99.90
55213;DHT22;41083;52.932;6.674;2023-02-10T09:28:47;3.30;99.90
55213;DHT22;41083;52.932;6.674;2023-02-10T09:31:13;3.40;99.90
55213;DHT22;41083;52.932;6.674;2023-02-10T09:33:41;3.40;99.90
55213;DHT22;41083;52.932;6.674;2023-02-10T09:36:08;3.40;99.90
55213;DHT22;41083;52.932;6.674;2023-02-10T09:38:35;3.50;99.90
55213;DHT22;41083;52.932;6.674;2023-02-10T09:41:31;3.60;99.90
55213;DHT22;41083;52.932;6.674;2023-02-10T09:44:12;3.60;99.90
55213;DHT22;41083;52.932;6.674;2023-02-10T09:46:53;3.70;99.90
55213;DHT22;41083;52.932;6.674;2023-02-10T09:49:27;3.70;99.90
55213;DHT22;41083;52.932;6.674;2023-02-10T09:52:14;3.80;99.90
55213;DHT22;41083;52.932;6.674;2023-02-10T09:54:40;3.80;99.90
55213;DHT22;41083;52.932;6.674;2023-02-10T09:59:55;4.00;99.90
55213;DHT22;41083;52.932;6.674;2023-02-10T10:02:40;4.10;99.90
55213;DHT22;41083;52.932;6.674;2023-02-10T10:05:47;4.20;99.90
55213;DHT22;41083;52.932;6.674;2023-02-10T10:08:50;4.30;99.90
55213;DHT22;41083;52.932;6.674;2023-02-10T10:11:31;4.40;99.90
55213;DHT22;41083;52.932;6.674;2023-02-10T10:13:59;4.40;99.90
55213;DHT22;41083;52.932;6.674;2023-02-10T10:19:40;4.50;99.90
55213;DHT22;41083;52.932;6.674;2023-02-10T10:28:39;4.70;99.90
55213;DHT22;41083;52.932;6.674;2023-02-10T10:31:14;4.70;99.90
55213;DHT22;41083;52.932;6.674;2023-02-10T10:33:50;4.80;99.90
55213;DHT22;41083;52.932;6.674;2023-02-10T10:36:29;4.80;99.90
55213;DHT22;41083;52.932;6.674;2023-02-10T10:39:01;4.80;99.90
55213;DHT22;41083;52.932;6.674;2023-02-10T10:41:30;4.90;99.90
55213;DHT22;41083;52.932;6.674;2023-02-10T10:43:58;4.90;99.90
55213;DHT22;41083;52.932;6.674;2023-02-10T10:48:55;5.00;99.90
55213;DHT22;41083;52.932;6.674;2023-02-10T10:51:21;5.10;99.90
55213;DHT22;41083;52.932;6.674;2023-02-10T10:53:50;5.10;99.90
55213;DHT22;41083;52.932;6.674;2023-02-10T10:59:03;5.30;99.90
55213;DHT22;41083;52.932;6.674;2023-02-10T11:01:39;5.30;99.90
55213;DHT22;41083;52.932;6.674;2023-02-10T11:04:19;5.40;99.90
55213;DHT22;41083;52.932;6.674;2023-02-10T11:06:48;5.40;99.90
55213;DHT22;41083;52.932;6.674;2023-02-10T11:09:38;5.50;99.90
55213;DHT22;41083;52.932;6.674;2023-02-10T11:12:15;5.50;99.90
55213;DHT22;41083;52.932;6.674;2023-02-10T11:14:47;5.50;99.90
55213;DHT22;41083;52.932;6.674;2023-02-10T11:17:39;5.60;99.90
55213;DHT22;41083;52.932;6.674;2023-02-10T11:22:37;5.70;99.90
55213;DHT22;41083;52.932;6.674;2023-02-10T11:27:50;5.80;99.90
55213;DHT22;41083;52.932;6.674;2023-02-10T11:30:36;5.80;99.90
55213;DHT22;41083;52.932;6.674;2023-02-10T11:33:05;5.90;99.90
55213;DHT22;41083;52.932;6.674;2023-02-10T11:35:32;6.00;99.90
55213;DHT22;41083;52.932;6.674;2023-02-10T11:38:07;6.00;99.90
55213;DHT22;41083;52.932;6.674;2023-02-10T11:41:02;6.10;99.90
55213;DHT22;41083;52.932;6.674;2023-02-10T11:43:50;6.10;99.90
55213;DHT22;41083;52.932;6.674;2023-02-10T11:46:23;6.20;99.90
55213;DHT22;41083;52.932;6.674;2023-02-10T11:48:58;6.10;99.90
55213;DHT22;41083;52.932;6.674;2023-02-10T11:51:24;6.20;99.90
55213;DHT22;41083;52.932;6.674;2023-02-10T11:53:50;6.20;99.90
55213;DHT22;41083;52.932;6.674;2023-02-10T12:10:36;6.40;99.90
55213;DHT22;41083;52.932;6.674;2023-02-10T12:19:04;6.50;99.90
55213;DHT22;41083;52.932;6.674;2023-02-10T12:21:58;6.50;99.90
55213;DHT22;41083;52.932;6.674;2023-02-10T12:24:38;6.50;99.90
55213;DHT22;41083;52.932;6.674;2023-02-10T12:30:35;6.60;99.90
55213;DHT22;41083;52.932;6.674;2023-02-10T12:33:11;6.60;99.90
55213;DHT22;41083;52.932;6.674;2023-02-10T12:35:59;6.60;99.90
55213;DHT22;41083;52.932;6.674;2023-02-10T12:41:25;6.70;99.90
55213;DHT22;41083;52.932;6.674;2023-02-10T12:44:05;6.70;99.90
55213;DHT22;41083;52.932;6.674;2023-02-10T12:47:07;6.70;99.90
55213;DHT22;41083;52.932;6.674;2023-02-10T12:49:58;6.70;99.90
55213;DHT22;41083;52.932;6.674;2023-02-10T12:52:31;6.80;99.90
55213;DHT22;41083;52.932;6.674;2023-02-10T12:55:12;6.90;99.90
55213;DHT22;41083;52.932;6.674;2023-02-10T12:57:44;6.90;99.90
55213;DHT22;41083;52.932;6.674;2023-02-10T13:00:24;6.90;99.90
55213;DHT22;41083;52.932;6.674;2023-02-10T13:02:58;6.90;99.90
55213;DHT22;41083;52.932;6.674;2023-02-10T13:05:31;7.00;99.90
55213;DHT22;41083;52.932;6.674;2023-02-10T13:08:02;7.00;99.90
55213;DHT22;41083;52.932;6.674;2023-02-10T13:10:43;7.00;99.90
55213;DHT22;41083;52.932;6.674;2023-02-10T13:13:20;7.00;99.90
55213;DHT22;41083;52.932;6.674;2023-02-10T13:15:58;7.00;99.90
55213;DHT22;41083;52.932;6.674;2023-02-10T13:18:30;7.10;99.90
55213;DHT22;41083;52.932;6.674;2023-02-10T13:21:47;7.10;99.90
55213;DHT22;41083;52.932;6.674;2023-02-10T13:24:11;7.10;99.90
55213;DHT22;41083;52.932;6.674;2023-02-10T13:27:07;7.10;99.90
55213;DHT22;41083;52.932;6.674;2023-02-10T13:30:36;7.10;99.90
55213;DHT22;41083;52.932;6.674;2023-02-10T13:33:00;7.10;99.90
55213;DHT22;41083;52.932;6.674;2023-02-10T13:35:27;7.00;99.90
55213;DHT22;41083;52.932;6.674;2023-02-10T13:37:57;7.00;99.90
55213;DHT22;41083;52.932;6.674;2023-02-10T13:40:25;7.10;99.90
55213;DHT22;41083;52.932;6.674;2023-02-10T13:43:03;7.10;99.90
55213;DHT22;41083;52.932;6.674;2023-02-10T13:45:31;7.10;99.90
55213;DHT22;41083;52.932;6.674;2023-02-10T13:48:03;7.20;99.90
55213;DHT22;41083;52.932;6.674;2023-02-10T13:50:46;7.20;99.90
55213;DHT22;41083;52.932;6.674;2023-02-10T13:53:38;7.20;99.90
55213;DHT22;41083;52.932;6.674;2023-02-10T13:58:50;7.30;99.90
55213;DHT22;41083;52.932;6.674;2023-02-10T14:06:46;7.30;99.90
55213;DHT22;41083;52.932;6.674;2023-02-10T14:12:01;7.30;99.90
55213;DHT22;41083;52.932;6.674;2023-02-10T14:14:29;7.30;99.90
55213;DHT22;41083;52.932;6.674;2023-02-10T14:17:22;7.30;99.90
55213;DHT22;41083;52.932;6.674;2023-02-10T14:19:58;7.20;99.90
55213;DHT22;41083;52.932;6.674;2023-02-10T14:27:38;7.30;99.90
55213;DHT22;41083;52.932;6.674;2023-02-10T14:30:15;7.30;99.90
55213;DHT22;41083;52.932;6.674;2023-02-10T14:32:44;7.30;99.90
55213;DHT22;41083;52.932;6.674;2023-02-10T14:35:22;7.30;99.90
55213;DHT22;41083;52.932;6.674;2023-02-10T14:37:50;7.30;99.90
55213;DHT22;41083;52.932;6.674;2023-02-10T14:40:18;7.20;99.90
55213;DHT22;41083;52.932;6.674;2023-02-10T14:42:44;7.20;99.90
55213;DHT22;41083;52.932;6.674;2023-02-10T14:45:22;7.20;99.90
55213;DHT22;41083;52.932;6.674;2023-02-10T14:47:49;7.20;99.90
55213;DHT22;41083;52.932;6.674;2023-02-10T14:50:24;7.20;99.90
55213;DHT22;41083;52.932;6.674;2023-02-10T14:52:50;7.20;99.90
55213;DHT22;41083;52.932;6.674;2023-02-10T14:57:56;7.20;99.90
55213;DHT22;41083;52.932;6.674;2023-02-10T15:00:22;7.20;99.90
55213;DHT22;41083;52.932;6.674;2023-02-10T15:02:54;7.20;99.90
55213;DHT22;41083;52.932;6.674;2023-02-10T15:05:21;7.20;99.90
55213;DHT22;41083;52.932;6.674;2023-02-10T15:07:50;7.20;99.90
55213;DHT22;41083;52.932;6.674;2023-02-10T15:10:32;7.20;99.90
55213;DHT22;41083;52.932;6.674;2023-02-10T15:12:59;7.10;99.90
55213;DHT22;41083;52.932;6.674;2023-02-10T15:15:33;7.10;99.90
55213;DHT22;41083;52.932;6.674;2023-02-10T15:18:14;7.10;99.90
55213;DHT22;41083;52.932;6.674;2023-02-10T15:20:54;7.00;99.90
55213;DHT22;41083;52.932;6.674;2023-02-10T15:23:20;7.00;99.90
55213;DHT22;41083;52.932;6.674;2023-02-10T15:25:46;7.00;99.90
55213;DHT22;41083;52.932;6.674;2023-02-10T15:31:03;6.90;99.90
55213;DHT22;41083;52.932;6.674;2023-02-10T15:33:34;6.90;99.90
55213;DHT22;41083;52.932;6.674;2023-02-10T15:38:46;6.90;99.90
55213;DHT22;41083;52.932;6.674;2023-02-10T15:43:54;6.90;99.90
55213;DHT22;41083;52.932;6.674;2023-02-10T15:46:22;6.90;99.90
55213;DHT22;41083;52.932;6.674;2023-02-10T15:48:48;6.90;99.90
55213;DHT22;41083;52.932;6.674;2023-02-10T15:53:47;6.90;99.90
55213;DHT22;41083;52.932;6.674;2023-02-10T15:56:13;6.90;99.90
55213;DHT22;41083;52.932;6.674;2023-02-10T15:58:38;6.90;99.90
55213;DHT22;41083;52.932;6.674;2023-02-10T16:01:04;6.80;99.90
55213;DHT22;41083;52.932;6.674;2023-02-10T16:03:30;6.80;99.90
55213;DHT22;41083;52.932;6.674;2023-02-10T16:05:55;6.70;99.90
55213;DHT22;41083;52.932;6.674;2023-02-10T16:08:27;6.70;99.90
55213;DHT22;41083;52.932;6.674;2023-02-10T16:10:53;6.60;99.90
55213;DHT22;41083;52.932;6.674;2023-02-10T16:13:19;6.60;99.90
55213;DHT22;41083;52.932;6.674;2023-02-10T16:15:46;6.60;99.90
55213;DHT22;41083;52.932;6.674;2023-02-10T16:18:18;6.50;99.90
55213;DHT22;41083;52.932;6.674;2023-02-10T16:20:44;6.50;99.90
55213;DHT22;41083;52.932;6.674;2023-02-10T16:23:12;6.40;99.90
55213;DHT22;41083;52.932;6.674;2023-02-10T16:25:38;6.40;99.90
55213;DHT22;41083;52.932;6.674;2023-02-10T16:28:05;6.30;99.90
55213;DHT22;41083;52.932;6.674;2023-02-10T16:30:31;6.30;99.90
55213;DHT22;41083;52.932;6.674;2023-02-10T16:32:58;6.30;99.90
55213;DHT22;41083;52.932;6.674;2023-02-10T16:35:25;6.20;99.90
55213;DHT22;41083;52.932;6.674;2023-02-10T16:37:51;6.20;99.90
55213;DHT22;41083;52.932;6.674;2023-02-10T16:40:24;6.20;99.90
55213;DHT22;41083;52.932;6.674;2023-02-10T16:42:50;6.10;99.90
55213;DHT22;41083;52.932;6.674;2023-02-10T16:45:15;6.10;99.90
55213;DHT22;41083;52.932;6.674;2023-02-10T16:47:41;6.10;99.90
55213;DHT22;41083;52.932;6.674;2023-02-10T16:52:56;6.20;99.90
55213;DHT22;41083;52.932;6.674;2023-02-10T16:55:22;6.20;99.90
55213;DHT22;41083;52.932;6.674;2023-02-10T16:57:48;6.10;99.90
55213;DHT22;41083;52.932;6.674;2023-02-10T17:00:14;6.20;99.90
55213;DHT22;41083;52.932;6.674;2023-02-10T17:02:41;6.20;99.90
55213;DHT22;41083;52.932;6.674;2023-02-10T17:05:07;6.10;99.90
55213;DHT22;41083;52.932;6.674;2023-02-10T17:07:34;6.10;99.90
55213;DHT22;41083;52.932;6.674;2023-02-10T17:10:00;6.10;99.90
55213;DHT22;41083;52.932;6.674;2023-02-10T17:12:26;6.10;99.90
55213;DHT22;41083;52.932;6.674;2023-02-10T17:14:51;6.10;99.90
55213;DHT22;41083;52.932;6.674;2023-02-10T17:17:17;6.00;99.90
55213;DHT22;41083;52.932;6.674;2023-02-10T17:19:42;6.10;99.90
55213;DHT22;41083;52.932;6.674;2023-02-10T17:22:08;6.10;99.90
55213;DHT22;41083;52.932;6.674;2023-02-10T17:24:34;6.10;99.90
55213;DHT22;41083;52.932;6.674;2023-02-10T17:26:59;6.00;99.90
55213;DHT22;41083;52.932;6.674;2023-02-10T17:29:25;6.00;99.90
55213;DHT22;41083;52.932;6.674;2023-02-10T17:31:51;5.90;99.90
55213;DHT22;41083;52.932;6.674;2023-02-10T17:34:16;5.90;99.90
55213;DHT22;41083;52.932;6.674;2023-02-10T17:36:44;5.90;99.90
55213;DHT22;41083;52.932;6.674;2023-02-10T17:39:18;5.90;99.90
55213;DHT22;41083;52.932;6.674;2023-02-10T17:41:47;5.80;99.90
55213;DHT22;41083;52.932;6.674;2023-02-10T17:44:12;5.90;99.90
55213;DHT22;41083;52.932;6.674;2023-02-10T17:46:38;5.90;99.90